Time;durP1;ratioP1;P1;durP2;ratioP2;P2;SDS_P1;SDS_P2;PMS_P1;PMS_P2;Temp;Humidity;BMP_temperature;BMP_pressure;BME280_temperature;BME280_humidity;BME280_pressure;Samples;Min_cycle;Max_cycle;Signal;HPM_P1;HPM_P2
2022/09/01 00:04:31;;;;;;;20.70;5.85;;;;;;;22.83;62.33;99579.19;10296952;28;20038;-71
2022/09/01 00:09:33;;;;;;;29.67;6.75;;;;;;;22.39;62.39;99514.63;10297032;28;20055;-71
2022/09/01 00:14:39;;;;;;;12.30;5.60;;;;;;;22.70;63.12;99572.38;10295680;28;20402;-70
2022/09/01 00:19:40;;;;;;;31.55;5.85;;;;;;;22.69;62.96;99582.38;10296422;28;20070;-70
2022/09/01 00:24:40;;;;;;;16.45;5.32;;;;;;;22.25;62.06;99525.94;10295975;28;20070;-70
2022/09/01 00:29:41;;;;;;;38.50;7.32;;;;;;;22.62;62.45;99587.25;10296253;28;20062;-71
2022/09/01 00:34:42;;;;;;;19.15;5.88;;;;;;;22.33;62.13;99560.59;10295970;28;20161;-70
2022/09/01 00:39:43;;;;;;;26.75;6.43;;;;;;;22.48;62.43;99578.00;10295941;28;20035;-70
2022/09/01 00:44:44;;;;;;;33.40;7.28;;;;;;;22.26;62.97;99579.00;10295244;28;20181;-70
2022/09/01 00:49:48;;;;;;;26.98;6.68;;;;;;;22.15;63.67;99584.56;10294674;28;20073;-71
2022/09/01 00:54:56;;;;;;;21.67;6.00;;;;;;;22.07;64.88;99575.06;10296110;28;20043;-71
2022/09/01 01:00:03;;;;;;;22.10;6.10;;;;;;;21.29;64.93;99472.13;10295522;28;20104;-71
2022/09/01 01:05:05;;;;;;;29.15;7.43;;;;;;;21.94;64.64;99586.34;10294196;28;20042;-71
2022/09/01 01:10:09;;;;;;;16.38;6.00;;;;;;;21.81;65.58;99590.34;10292741;28;20051;-70
2022/09/01 01:15:12;;;;;;;27.50;6.70;;;;;;;21.28;66.15;99517.22;10293236;28;20045;-71
2022/09/01 01:25:48;;;;;;;29.55;8.10;;;;;;;21.63;68.70;99583.47;10293501;28;20039;-70
2022/09/01 01:31:03;;;;;;;21.13;7.10;;;;;;;21.56;68.94;99585.53;10294483;28;20069;-71
2022/09/01 01:36:06;;;;;;;27.73;7.20;;;;;;;21.43;67.85;99594.91;10293644;28;20045;-71
2022/09/01 01:41:10;;;;;;;142.82;12.38;;;;;;;21.36;67.91;99581.63;10293124;28;20086;-70
2022/09/01 01:46:13;;;;;;;30.17;8.30;;;;;;;21.34;68.12;99583.72;10293292;28;20043;-71
2022/09/01 01:51:19;;;;;;;17.45;6.75;;;;;;;21.10;70.11;99591.34;10292989;28;20085;-71
2022/09/01 01:56:25;;;;;;;99.55;12.75;;;;;;;21.06;69.48;99582.13;10291180;28;20067;-70
2022/09/01 02:01:30;;;;;;;60.00;9.55;;;;;;;21.07;70.05;99599.97;10292235;28;20046;-70
2022/09/01 02:06:33;;;;;;;36.20;8.05;;;;;;;20.90;70.17;99604.63;10293516;28;20386;-71
2022/09/01 02:11:36;;;;;;;44.97;9.27;;;;;;;20.95;69.57;99594.72;10292293;28;20045;-71
2022/09/01 02:16:38;;;;;;;291.63;22.65;;;;;;;20.88;69.87;99598.66;10291667;28;20574;-70
2022/09/01 02:21:43;;;;;;;36.47;8.60;;;;;;;20.87;69.79;99600.56;10290798;28;20109;-70
2022/09/01 02:26:47;;;;;;;28.35;8.32;;;;;;;20.61;70.25;99577.03;10291583;28;20038;-71
2022/09/01 02:31:51;;;;;;;90.88;13.52;;;;;;;20.72;71.13;99603.09;10292570;28;20059;-70
2022/09/01 02:36:54;;;;;;;414.92;31.33;;;;;;;20.77;70.31;99591.56;10291333;28;20062;-70
2022/09/01 02:41:55;;;;;;;80.90;14.25;;;;;;;19.99;69.52;99446.88;10291689;28;20039;-70
2022/09/01 02:46:57;;;;;;;45.05;10.93;;;;;;;20.44;70.03;99537.47;10292174;28;20043;-70
2022/09/01 02:52:00;;;;;;;51.85;10.13;;;;;;;20.63;70.94;99599.22;10291763;28;20526;-70
2022/09/01 02:57:02;;;;;;;155.93;18.02;;;;;;;20.81;70.85;99601.56;10291139;28;20039;-70
2022/09/01 03:02:05;;;;;;;91.68;13.63;;;;;;;20.92;70.50;99573.63;10291285;28;20074;-70
2022/09/01 03:07:06;;;;;;;127.68;15.63;;;;;;;21.27;69.82;99620.13;10290752;28;20074;-71
2022/09/01 03:12:07;;;;;;;38.80;11.93;;;;;;;21.03;69.68;99568.31;10290976;28;20081;-71
2022/09/01 03:17:08;;;;;;;42.72;10.43;;;;;;;21.57;69.64;99625.03;10291285;28;20065;-70
2022/09/01 03:22:09;;;;;;;127.35;16.38;;;;;;;21.98;68.60;99619.91;10290408;28;20071;-71
2022/09/01 03:27:10;;;;;;;27.02;8.85;;;;;;;22.28;67.64;99639.03;10289093;28;20521;-71
2022/09/01 03:32:11;;;;;;;31.13;7.80;;;;;;;22.30;66.50;99580.06;10290929;28;20066;-70
2022/09/01 03:37:12;;;;;;;228.15;21.30;;;;;;;23.52;64.71;99641.06;10297935;28;20116;-70
2022/09/01 03:42:18;;;;;;;62.95;10.45;;;;;;;24.56;62.09;99622.50;10297034;28;20038;-71
2022/09/01 03:47:20;;;;;;;22.75;7.53;;;;;;;25.53;59.23;99645.59;10295616;28;20588;-72
2022/09/01 03:52:28;;;;;;;35.25;7.93;;;;;;;26.33;57.20;99647.84;10292511;28;20415;-71
2022/09/01 03:57:29;;;;;;;33.25;8.05;;;;;;;27.02;54.96;99639.41;10292387;28;20049;-70
2022/09/01 04:02:30;;;;;;;50.10;8.35;;;;;;;27.63;53.75;99649.38;10292906;28;20380;-70
2022/09/01 04:07:31;;;;;;;49.10;7.10;;;;;;;28.36;51.77;99649.72;10294619;28;20039;-71
2022/09/01 04:12:32;;;;;;;45.03;8.00;;;;;;;28.66;50.20;99653.84;10279656;28;20054;-69
2022/09/01 04:22:56;;;;;;;53.72;7.82;;;;;;;29.52;47.93;99648.34;10295747;28;20046;-71
2022/09/01 04:27:57;;;;;;;43.10;7.88;;;;;;;29.94;46.99;99654.41;10281400;28;20507;-71
2022/09/01 04:32:58;;;;;;;56.45;7.70;;;;;;;30.46;46.46;99640.19;10270954;28;20383;-71
2022/09/01 04:38:00;;;;;;;38.70;7.50;;;;;;;30.36;45.52;99640.47;10296176;28;20035;-70
2022/09/01 04:43:01;;;;;;;57.13;7.20;;;;;;;30.31;44.70;99630.47;10295759;28;20049;-70
2022/09/01 04:48:04;;;;;;;35.58;6.65;;;;;;;30.33;43.85;99647.38;10294503;28;20046;-69
2022/09/01 04:53:06;;;;;;;29.95;6.90;;;;;;;30.10;44.61;99646.63;10295276;28;20098;-71
2022/09/01 04:58:06;;;;;;;21.67;6.03;;;;;;;29.76;44.46;99644.50;10295907;28;20141;-72
2022/09/01 05:03:09;;;;;;;17.38;5.43;;;;;;;29.62;43.33;99641.06;10294900;28;20133;-71
2022/09/01 05:08:17;;;;;;;31.83;5.60;;;;;;;29.59;44.04;99636.97;10294280;28;20042;-72
2022/09/01 05:13:21;;;;;;;18.90;5.53;;;;;;;29.51;43.96;99649.47;10294023;28;20053;-72
2022/09/01 05:18:23;;;;;;;33.60;6.18;;;;;;;29.55;44.19;99620.34;10294342;28;20538;-72
2022/09/01 05:23:25;;;;;;;28.85;6.00;;;;;;;29.98;43.98;99624.50;10293815;28;20034;-72
2022/09/01 05:28:26;;;;;;;26.03;5.97;;;;;;;30.19;43.06;99635.72;10293578;28;20133;-71
2022/09/01 05:33:27;;;;;;;33.65;5.72;;;;;;;30.48;42.50;99637.91;10293267;28;20051;-72
2022/09/01 05:38:30;;;;;;;22.52;5.20;;;;;;;30.78;42.27;99640.91;10293539;28;20125;-72
2022/09/01 05:43:31;;;;;;;21.83;5.38;;;;;;;31.14;41.47;99644.22;10292859;28;20113;-72
2022/09/01 05:48:33;;;;;;;17.85;4.68;;;;;;;31.02;40.94;99582.88;10292987;28;20047;-72
2022/09/01 05:53:34;;;;;;;15.40;4.32;;;;;;;31.68;40.00;99638.38;10292979;28;20093;-72
2022/09/01 05:58:36;;;;;;;19.80;5.18;;;;;;;31.83;38.80;99632.38;10292112;28;20042;-72
2022/09/01 06:03:38;;;;;;;23.55;4.85;;;;;;;31.92;38.55;99645.28;10292275;28;20041;-72
2022/09/01 06:08:41;;;;;;;18.10;5.00;;;;;;;32.11;38.20;99620.19;10292323;28;20415;-72
2022/09/01 06:13:46;;;;;;;16.05;5.20;;;;;;;32.35;37.46;99636.09;10292721;28;20049;-72
2022/09/01 06:18:47;;;;;;;25.13;5.53;;;;;;;32.60;37.96;99629.66;10291632;28;20047;-72
2022/09/01 06:23:52;;;;;;;22.05;5.60;;;;;;;33.10;37.96;99617.03;10292148;28;20626;-72
2022/09/01 06:28:55;;;;;;;17.90;5.07;;;;;;;33.75;36.10;99614.69;10291694;28;20070;-72
2022/09/01 06:33:56;;;;;;;18.75;4.63;;;;;;;33.87;35.38;99628.47;10292109;28;20057;-72
2022/09/01 06:39:00;;;;;;;21.48;4.78;;;;;;;33.96;34.25;99620.91;10292472;28;20475;-73
2022/09/01 06:44:01;;;;;;;17.67;5.13;;;;;;;33.44;34.58;99549.84;10292274;28;20136;-73
2022/09/01 06:49:02;;;;;;;19.67;4.35;;;;;;;33.70;34.37;99601.91;10291002;28;20117;-73
2022/09/01 06:54:03;;;;;;;20.45;4.28;;;;;;;33.63;34.93;99596.16;10291304;28;20570;-73
2022/09/01 06:59:06;;;;;;;13.60;3.53;;;;;;;33.52;33.49;99573.75;10291670;28;20047;-73
2022/09/01 07:04:08;;;;;;;17.80;3.17;;;;;;;33.76;32.50;99541.91;10290770;28;20069;-72
2022/09/01 07:09:10;;;;;;;16.00;3.90;;;;;;;34.18;31.41;99596.84;10293334;28;20074;-73
2022/09/01 07:14:14;;;;;;;27.80;3.80;;;;;;;34.26;32.01;99602.22;10299223;28;20050;-72
2022/09/01 07:19:15;;;;;;;16.35;3.45;;;;;;;34.99;30.91;99590.28;10298825;28;20484;-72
2022/09/01 07:24:17;;;;;;;16.30;3.30;;;;;;;35.57;28.89;99578.09;10299056;28;20053;-72
2022/09/01 07:29:21;;;;;;;11.18;3.38;;;;;;;35.80;28.08;99561.72;10298110;28;20065;-71
2022/09/01 07:34:24;;;;;;;14.93;3.40;;;;;;;35.40;27.56;99519.28;10298420;28;20051;-71
2022/09/01 07:39:25;;;;;;;18.02;3.60;;;;;;;35.25;27.46;99497.97;10297589;28;20053;-72
2022/09/01 07:44:26;;;;;;;14.63;2.90;;;;;;;35.52;26.34;99561.78;10295909;28;20039;-70
2022/09/01 07:49:28;;;;;;;17.17;2.95;;;;;;;35.44;25.74;99550.53;10297727;28;20047;-71
2022/09/01 07:54:29;;;;;;;11.32;3.08;;;;;;;35.36;25.71;99536.88;10296426;28;20045;-70
2022/09/01 07:59:32;;;;;;;10.70;2.73;;;;;;;35.42;24.84;99524.41;10297378;28;20166;-70
2022/09/01 08:04:33;;;;;;;53.05;4.78;;;;;;;35.56;24.81;99543.34;10296625;28;20062;-71
2022/09/01 08:09:36;;;;;;;33.22;4.70;;;;;;;35.46;23.92;99547.44;10288282;28;20098;-71
2022/09/01 08:14:37;;;;;;;22.58;3.63;;;;;;;35.20;24.96;99534.91;10264417;28;20062;-70
2022/09/01 08:19:38;;;;;;;11.75;3.00;;;;;;;34.94;25.01;99515.22;10256054;28;20043;-71
2022/09/01 08:24:39;;;;;;;29.55;3.85;;;;;;;34.78;25.01;99481.25;10263425;28;20384;-71
2022/09/01 08:29:40;;;;;;;29.27;3.55;;;;;;;34.68;24.82;99422.69;10296150;28;20062;-70
2022/09/01 08:34:42;;;;;;;21.25;3.63;;;;;;;35.34;24.57;99484.00;10295694;28;20043;-71
2022/09/01 08:39:43;;;;;;;14.15;3.10;;;;;;;35.95;24.36;99502.88;10280299;28;20046;-71
2022/09/01 08:44:57;;;;;;;55.50;5.50;;;;;;;36.25;23.53;99483.84;10288688;28;20043;-71
2022/09/01 08:49:59;;;;;;;30.13;3.63;;;;;;;36.89;23.00;99512.09;10295248;28;20043;-70
2022/09/01 08:55:24;;;;;;;50.33;5.18;;;;;;;36.73;22.92;99428.34;10293984;28;20463;-71
2022/09/01 09:00:29;;;;;;;28.30;4.00;;;;;;;36.63;22.84;99432.50;10294974;28;20562;-70
2022/09/01 09:05:41;;;;;;;40.20;3.97;;;;;;;37.41;23.27;99485.78;10294048;28;20483;-70
2022/09/01 09:10:52;;;;;;;16.83;3.08;;;;;;;37.22;22.53;99425.72;10292831;28;20098;-71
2022/09/01 09:16:01;;;;;;;18.83;4.23;;;;;;;37.11;23.11;99469.03;10280989;28;20066;-70
2022/09/01 09:21:48;;;;;;;14.60;3.95;;;;;;;37.03;22.79;99466.50;10287150;28;20403;-70
2022/09/01 09:26:50;;;;;;;21.15;4.03;;;;;;;36.71;23.83;99450.06;10288934;28;20057;-71
2022/09/01 09:32:07;;;;;;;29.45;4.30;;;;;;;36.72;23.09;99410.94;10288539;28;20058;-70
2022/09/01 09:37:26;;;;;;;16.17;3.40;;;;;;;37.42;23.00;99476.28;10292128;28;20051;-71
2022/09/01 09:42:27;;;;;;;21.25;4.13;;;;;;;37.40;22.71;99444.59;10282823;28;20578;-70
2022/09/01 09:47:45;;;;;;;83.67;7.20;;;;;;;37.63;22.96;99411.34;10291545;28;20130;-70
2022/09/01 09:52:47;;;;;;;24.42;4.03;;;;;;;38.21;23.02;99462.91;10287193;28;20053;-70
2022/09/01 09:57:52;;;;;;;21.98;4.22;;;;;;;37.92;22.86;99432.75;10290500;28;20051;-71
2022/09/01 10:03:02;;;;;;;85.07;9.00;;;;;;;38.20;21.48;99447.41;10291190;28;20078;-72
2022/09/01 10:08:05;;;;;;;17.35;3.58;;;;;;;38.02;21.74;99406.38;10293187;28;20053;-73
2022/09/01 10:13:16;;;;;;;27.88;4.15;;;;;;;38.21;21.53;99396.34;10290621;28;20065;-71
2022/09/01 10:18:21;;;;;;;40.40;4.63;;;;;;;38.78;21.10;99449.75;10291769;28;20051;-71
2022/09/01 10:23:23;;;;;;;20.38;4.15;;;;;;;38.78;21.79;99421.97;10292268;28;20365;-71
2022/09/01 10:28:26;;;;;;;12.07;3.45;;;;;;;38.99;20.54;99457.53;10291426;28;20083;-76
2022/09/01 10:33:27;;;;;;;14.50;3.20;;;;;;;38.74;21.06;99401.69;10290763;28;20407;-71
2022/09/01 10:38:29;;;;;;;56.40;5.93;;;;;;;38.92;20.99;99397.19;10290972;28;20043;-71
2022/09/01 10:43:36;;;;;;;15.88;3.83;;;;;;;39.29;21.08;99454.66;10291047;28;20105;-71
2022/09/01 10:48:37;;;;;;;24.75;4.82;;;;;;;39.27;21.47;99446.66;10291535;28;20598;-71
2022/09/01 10:53:38;;;;;;;;;;;;;;;39.42;21.62;99444.03;10291261;28;20049;-70
2022/09/01 10:58:56;;;;;;;22.00;4.00;;;;;;;39.08;21.38;99443.34;10291627;28;20017;-70
2022/09/01 11:03:57;;;;;;;18.70;3.85;;;;;;;39.04;21.97;99421.06;10291279;28;20130;-70
2022/09/01 11:09:04;;;;;;;11.20;3.50;;;;;;;39.10;21.45;99418.72;10290607;28;20037;-70
2022/09/01 11:14:21;;;;;;;20.55;3.40;;;;;;;39.14;20.89;99414.03;10291054;28;20041;-71
2022/09/01 11:19:32;;;;;;;19.10;3.60;;;;;;;39.21;20.66;99400.19;10290408;28;20039;-70
2022/09/01 11:24:39;;;;;;;15.88;3.45;;;;;;;39.14;20.90;99394.59;10290974;28;20518;-71
2022/09/01 11:29:59;;;;;;;26.63;4.55;;;;;;;38.83;20.79;99338.34;10291013;28;20419;-72
2022/09/01 11:35:03;;;;;;;21.15;4.53;;;;;;;38.82;21.37;99342.31;10290392;28;20126;-71
2022/09/01 11:40:09;;;;;;;18.48;3.67;;;;;;;39.14;20.97;99362.03;10291000;28;20137;-71
2022/09/01 11:45:17;;;;;;;25.67;4.53;;;;;;;39.27;21.01;99359.75;10289961;28;20522;-75
2022/09/01 11:50:20;;;;;;;21.10;3.65;;;;;;;39.22;20.71;99351.78;10289893;28;20050;-73
2022/09/01 11:55:30;;;;;;;26.50;4.70;;;;;;;39.20;20.67;99340.28;10291532;28;20046;-72
2022/09/01 12:00:37;;;;;;;16.13;3.58;;;;;;;39.09;19.65;99331.06;10297478;28;20041;-73
2022/09/01 12:05:48;;;;;;;30.30;4.78;;;;;;;38.84;19.77;99278.88;10296076;28;20134;-71
2022/09/01 12:10:50;;;;;;;22.48;4.45;;;;;;;39.14;19.22;99344.59;10296155;28;20069;-70
2022/09/01 12:15:57;;;;;;;34.03;4.90;;;;;;;38.90;19.68;99296.00;10288962;28;20143;-73
2022/09/01 12:21:00;;;;;;;12.75;3.67;;;;;;;39.16;19.51;99331.91;10262293;28;20141;-70
2022/09/01 12:26:12;;;;;;;23.88;3.85;;;;;;;39.29;19.41;99340.75;10294869;28;20389;-72
2022/09/01 12:31:17;;;;;;;19.70;3.00;;;;;;;39.00;19.19;99321.06;10293677;28;20117;-70
2022/09/01 12:36:22;;;;;;;18.35;3.40;;;;;;;38.99;19.38;99336.13;10295125;28;20129;-71
2022/09/01 12:41:31;;;;;;;31.10;3.92;;;;;;;38.15;19.25;99262.75;10282223;28;20054;-72
2022/09/01 12:46:41;;;;;;;19.58;3.60;;;;;;;38.08;19.68;99305.06;10282993;28;20129;-71
2022/09/01 12:51:42;;;;;;;15.00;3.33;;;;;;;38.03;20.28;99337.88;10275968;28;20051;-71
2022/09/01 12:56:49;;;;;;;18.37;3.40;;;;;;;37.49;19.63;99298.34;10276642;28;20042;-71
2022/09/01 13:01:51;;;;;;;15.23;3.53;;;;;;;37.66;20.20;99339.38;10276789;28;20117;-72
2022/09/01 13:06:53;;;;;;;;;;;;;;;37.64;20.10;99338.94;10268152;28;20046;-73
2022/09/01 13:12:11;;;;;;;19.92;3.45;;;;;;;37.38;20.27;99338.91;10269942;28;19925;-69
2022/09/01 13:17:12;;;;;;;19.52;3.35;;;;;;;37.11;20.25;99302.91;10280028;28;20522;-71
2022/09/01 13:22:13;;;;;;;31.08;3.78;;;;;;;37.26;20.35;99341.88;10287358;28;20057;-67
2022/09/01 13:27:13;;;;;;;22.75;3.47;;;;;;;36.78;20.00;99282.16;10293342;28;20054;-72
2022/09/01 13:32:16;;;;;;;19.35;3.33;;;;;;;37.15;19.74;99350.81;10294171;28;20427;-70
2022/09/01 13:37:17;;;;;;;11.90;3.22;;;;;;;36.78;19.93;99317.34;10287638;28;20072;-71
2022/09/01 13:42:18;;;;;;;27.27;4.20;;;;;;;36.93;19.93;99354.38;10284868;28;20052;-71
2022/09/01 13:47:19;;;;;;;24.87;4.07;;;;;;;36.79;20.50;99361.25;10263093;28;20126;-71
2022/09/01 13:52:20;;;;;;;47.42;6.70;;;;;;;36.63;20.55;99365.31;10251753;28;20049;-71
2022/09/01 13:57:21;;;;;;;16.63;3.70;;;;;;;35.72;20.72;99264.31;10251311;28;20071;-70
2022/09/01 14:02:22;;;;;;;26.38;4.22;;;;;;;36.47;20.51;99368.16;10252089;28;20182;-70
2022/09/01 14:07:22;;;;;;;17.50;3.25;;;;;;;36.47;20.28;99340.50;10253392;28;20197;-72
2022/09/01 14:12:23;;;;;;;25.02;3.75;;;;;;;36.71;20.29;99334.63;10269004;28;20771;-71
2022/09/01 14:17:25;;;;;;;53.50;6.20;;;;;;;36.40;20.80;99258.16;10273067;28;20050;-71
2022/09/01 14:22:26;;;;;;;118.57;9.73;;;;;;;36.66;20.87;99323.06;10273115;28;20058;-71
2022/09/01 14:27:27;;;;;;;28.83;4.00;;;;;;;36.43;20.59;99320.25;10273573;28;20062;-71
2022/09/01 14:32:28;;;;;;;14.18;3.22;;;;;;;36.39;20.12;99366.41;10273720;28;20054;-71
2022/09/01 14:37:29;;;;;;;32.75;4.68;;;;;;;36.10;20.37;99354.75;10257112;28;20050;-72
2022/09/01 14:42:30;;;;;;;46.47;6.65;;;;;;;36.10;20.20;99294.75;10250591;28;20047;-73
2022/09/01 14:47:31;;;;;;;31.60;4.43;;;;;;;35.86;20.41;99223.97;10252265;28;20039;-73
2022/09/01 14:52:32;;;;;;;28.65;5.07;;;;;;;36.27;20.09;99298.22;10251011;28;20051;-71
2022/09/01 14:57:33;;;;;;;18.50;3.67;;;;;;;36.21;20.23;99294.16;10251201;28;20047;-71
2022/09/01 15:02:34;;;;;;;20.70;4.07;;;;;;;35.66;20.69;99237.00;10250993;28;20510;-71
2022/09/01 15:07:36;;;;;;;38.78;3.75;;;;;;;35.64;20.85;99266.16;10250338;28;20042;-72
2022/09/01 15:12:38;;;;;;;16.90;3.30;;;;;;;35.54;20.83;99302.56;10250994;28;20542;-72
2022/09/01 15:17:39;;;;;;;24.23;3.20;;;;;;;35.43;21.00;99305.91;10250285;28;20094;-70
2022/09/01 15:22:40;;;;;;;27.95;3.97;;;;;;;35.20;21.52;99321.53;10250692;28;20039;-70
2022/09/01 15:27:41;;;;;;;52.20;4.83;;;;;;;34.61;21.66;99262.50;10250325;28;20122;-70
2022/09/01 15:32:48;;;;;;;20.23;3.60;;;;;;;34.74;22.13;99338.53;10256705;28;20492;-70
2022/09/01 15:37:50;;;;;;;22.02;3.70;;;;;;;34.42;22.39;99315.56;10257953;28;20430;-70
2022/09/01 15:42:51;;;;;;;19.50;4.43;;;;;;;34.36;22.50;99335.47;10257825;28;20047;-70
2022/09/01 15:47:52;;;;;;;22.05;3.92;;;;;;;34.06;23.14;99322.84;10257493;28;20586;-70
2022/09/01 15:52:59;;;;;;;21.30;3.50;;;;;;;33.86;23.52;99340.34;10286272;28;20046;-69
2022/09/01 15:58:00;;;;;;;16.23;3.38;;;;;;;33.65;23.92;99346.00;10297287;28;20513;-70
2022/09/01 16:03:02;;;;;;;31.25;3.63;;;;;;;33.57;24.33;99349.69;10295960;28;20130;-71
2022/09/01 16:08:08;;;;;;;24.30;4.30;;;;;;;33.17;24.57;99322.84;10296293;28;20561;-70
2022/09/01 16:13:09;;;;;;;19.98;3.90;;;;;;;33.27;24.88;99366.44;10294316;28;20035;-70
2022/09/01 16:18:32;;;;;;;16.48;3.17;;;;;;;33.09;25.75;99368.59;10282927;28;20055;-70
2022/09/01 16:23:41;;;;;;;29.00;3.95;;;;;;;32.87;25.61;99380.78;10286412;28;20042;-70
2022/09/01 16:28:47;;;;;;;16.48;3.47;;;;;;;32.72;25.79;99381.44;10274018;28;20051;-70
2022/09/01 16:33:55;;;;;;;12.65;3.47;;;;;;;32.11;25.90;99316.03;10288700;28;20121;-69
2022/09/01 16:39:05;;;;;;;18.60;3.72;;;;;;;32.48;26.25;99395.91;10256321;28;20506;-69
2022/09/01 16:44:44;;;;;;;22.65;3.55;;;;;;;32.38;26.12;99396.28;10254133;28;20094;-69
2022/09/01 16:49:53;;;;;;;20.60;3.22;;;;;;;32.26;25.81;99408.03;10264861;28;20055;-69
2022/09/01 16:55:13;;;;;;;18.50;3.70;;;;;;;31.72;26.38;99351.03;10270745;28;20047;-68
2022/09/01 17:00:18;;;;;;;22.27;3.63;;;;;;;31.73;26.77;99368.31;10283139;28;20046;-68
2022/09/01 17:05:36;;;;;;;11.63;3.10;;;;;;;31.41;26.68;99325.88;10269417;28;20074;-68
2022/09/01 17:10:45;;;;;;;33.40;3.83;;;;;;;31.29;27.16;99332.03;10285528;28;20055;-70
2022/09/01 17:16:02;;;;;;;25.58;3.70;;;;;;;31.51;27.65;99374.91;10290786;28;20050;-70
2022/09/01 17:21:31;;;;;;;20.98;4.50;;;;;;;31.58;28.09;99377.91;10290365;28;20050;-70
2022/09/01 17:26:31;;;;;;;15.98;3.72;;;;;;;31.11;27.91;99314.84;10263548;28;20158;-71
2022/09/01 17:31:45;;;;;;;15.48;4.40;;;;;;;31.52;28.82;99395.72;10290327;28;20542;-70
2022/09/01 17:36:52;;;;;;;18.35;5.47;;;;;;;31.44;29.25;99397.38;10288573;28;20039;-69
2022/09/01 17:42:01;;;;;;;36.17;7.85;;;;;;;31.40;29.95;99392.88;10279050;28;20062;-75
2022/09/01 17:47:34;;;;;;;21.70;8.52;;;;;;;31.30;30.36;99372.88;10272277;28;20039;-69
2022/09/01 17:52:56;;;;;;;45.03;15.60;;;;;;;30.54;30.93;99282.28;10259603;28;20091;-70
2022/09/01 17:58:16;;;;;;;28.63;14.20;;;;;;;31.19;31.40;99412.78;10268094;28;20500;-69
2022/09/01 18:03:59;;;;;;;32.60;11.30;;;;;;;30.95;32.10;99413.31;10267721;28;20039;-69
2022/09/01 18:09:01;;;;;;;32.00;8.20;;;;;;;30.75;32.03;99417.53;10267975;28;20050;-68
2022/09/01 18:14:13;;;;;;;21.55;6.13;;;;;;;30.60;32.73;99407.06;10266654;28;20146;-69
2022/09/01 18:19:27;;;;;;;19.80;6.53;;;;;;;30.42;33.82;99429.03;10248079;28;20043;-68
2022/09/01 18:24:38;;;;;;;16.00;5.72;;;;;;;30.24;34.04;99439.16;10248555;29;20083;-68
2022/09/01 18:29:39;;;;;;;22.42;6.03;;;;;;;30.28;33.87;99499.59;10247878;28;20431;-68
2022/09/01 18:34:47;;;;;;;20.02;6.25;;;;;;;30.11;34.87;99524.97;10248662;28;20054;-68
2022/09/01 18:40:07;;;;;;;26.92;6.18;;;;;;;30.25;34.27;99566.78;10248179;28;20054;-68
2022/09/01 18:45:27;;;;;;;18.05;6.43;;;;;;;30.28;34.78;99579.06;10248161;28;20133;-67
2022/09/01 18:50:43;;;;;;;30.50;9.23;;;;;;;29.87;35.13;99530.06;10274758;28;20046;-68
2022/09/01 18:55:52;;;;;;;26.10;8.00;;;;;;;29.94;35.29;99498.34;10286816;28;20054;-68
2022/09/01 19:01:06;;;;;;;21.63;7.78;;;;;;;29.66;36.23;99450.44;10287672;28;20075;-69
2022/09/01 19:06:29;;;;;;;45.30;22.33;;;;;;;29.46;36.19;99542.88;10291366;28;20193;-68
2022/09/01 19:11:41;;;;;;;31.98;14.25;;;;;;;29.15;37.31;99470.94;10296052;28;20093;-68
2022/09/01 19:17:00;;;;;;;23.10;8.80;;;;;;;28.81;37.02;99453.97;10295552;28;20047;-69
2022/09/01 19:22:01;;;;;;;27.02;7.35;;;;;;;28.38;37.95;99420.81;10295375;28;20435;-68
2022/09/01 19:27:10;;;;;;;23.05;6.00;;;;;;;28.27;38.36;99390.22;10293447;28;20125;-69
2022/09/01 19:32:17;;;;;;;18.95;5.97;;;;;;;28.37;38.02;99411.00;10293572;28;20507;-69
2022/09/01 19:37:18;;;;;;;13.75;5.07;;;;;;;28.30;38.55;99377.81;10294392;28;20049;-69
2022/09/01 19:42:24;;;;;;;20.42;5.03;;;;;;;28.02;39.14;99257.81;10294617;28;20121;-70
2022/09/01 19:47:40;;;;;;;21.95;5.50;;;;;;;28.41;39.39;99314.47;10295244;28;20129;-71
2022/09/01 19:52:59;;;;;;;37.63;18.52;;;;;;;28.48;39.57;99430.72;10292707;28;20467;-69
2022/09/01 19:58:12;;;;;;;34.70;10.90;;;;;;;28.11;40.15;99351.50;10294891;28;20042;-68
2022/09/01 20:03:32;;;;;;;23.95;6.47;;;;;;;28.44;41.59;99375.88;10294609;28;20041;-68
2022/09/01 20:08:53;;;;;;;23.48;4.85;;;;;;;28.18;41.02;99300.03;10293937;28;20043;-68
2022/09/01 20:14:17;;;;;;;19.92;4.18;;;;;;;28.57;42.40;99413.28;10292884;28;20049;-68
2022/09/01 20:19:39;;;;;;;23.17;7.07;;;;;;;28.60;43.16;99440.00;10291771;28;20134;-69
2022/09/01 20:24:40;;;;;;;26.13;6.55;;;;;;;28.21;43.22;99367.66;10293130;28;20700;-68
2022/09/01 20:30:13;;;;;;;26.00;5.35;;;;;;;28.35;44.33;99421.41;10295218;28;20081;-69
2022/09/01 20:35:47;;;;;;;156.93;89.32;;;;;;;27.91;45.07;99415.56;10273448;28;20054;-68
2022/09/01 20:40:49;;;;;;;37.63;19.00;;;;;;;27.60;46.24;99377.16;10296155;28;20071;-69
2022/09/01 20:45:50;;;;;;;22.40;5.88;;;;;;;27.98;47.60;99410.50;10295871;28;20054;-72
2022/09/01 20:51:00;;;;;;;20.05;3.92;;;;;;;28.21;48.74;99433.19;10295226;28;20039;-71
2022/09/01 20:56:21;;;;;;;16.52;3.63;;;;;;;28.13;48.68;99427.66;10295547;28;20042;-70
2022/09/01 21:01:28;;;;;;;27.83;4.50;;;;;;;27.61;47.61;99369.78;10295425;28;20117;-71
2022/09/01 21:06:43;;;;;;;39.72;15.02;;;;;;;27.92;47.94;99443.66;10294645;28;20530;-71
2022/09/01 21:12:25;;;;;;;55.78;16.85;;;;;;;27.76;49.51;99448.59;10294396;28;20525;-71
2022/09/01 21:17:41;;;;;;;48.42;22.00;;;;;;;27.34;50.47;99453.22;10246610;28;20054;-71
2022/09/01 21:22:42;;;;;;;22.58;8.65;;;;;;;26.95;50.01;99424.44;10292904;28;20049;-71
2022/09/01 21:27:50;;;;;;;25.00;7.63;;;;;;;26.60;50.90;99415.75;10293353;28;20109;-71
2022/09/01 21:32:55;;;;;;;27.65;7.85;;;;;;;26.74;50.87;99450.41;10293798;28;20467;-71
2022/09/01 21:37:56;;;;;;;31.02;7.13;;;;;;;26.15;51.16;99398.97;10294349;28;20093;-71
2022/09/01 21:43:06;;;;;;;17.73;5.43;;;;;;;26.18;52.96;99433.78;10293047;28;20106;-71
2022/09/01 21:48:08;;;;;;;16.30;3.80;;;;;;;25.88;51.87;99424.09;10292984;28;20093;-71
2022/09/01 21:53:09;;;;;;;14.10;3.35;;;;;;;26.06;51.43;99457.09;10292578;28;20142;-71
2022/09/01 21:58:10;;;;;;;20.77;3.42;;;;;;;25.92;52.10;99485.00;10293173;28;20043;-71
2022/09/01 22:03:11;;;;;;;11.40;3.03;;;;;;;25.67;52.07;99479.84;10294429;28;20141;-71
2022/09/01 22:08:15;;;;;;;18.38;4.07;;;;;;;25.69;51.78;99502.91;10291517;28;20039;-71
2022/09/01 22:13:18;;;;;;;17.52;4.47;;;;;;;25.66;51.71;99519.00;10292542;28;20054;-71
2022/09/01 22:18:21;;;;;;;21.10;4.23;;;;;;;25.17;53.02;99446.63;10292012;28;20039;-71
2022/09/01 22:23:22;;;;;;;16.03;4.43;;;;;;;25.42;52.82;99503.44;10291136;28;20041;-71
2022/09/01 22:28:22;;;;;;;11.85;3.40;;;;;;;25.26;52.90;99496.53;10292088;28;20065;-71
2022/09/01 22:33:23;;;;;;;15.35;3.53;;;;;;;25.13;53.58;99500.75;10291930;28;20057;-71
2022/09/01 22:38:24;;;;;;;46.35;5.47;;;;;;;25.05;53.82;99502.13;10290173;28;20125;-71
2022/09/01 22:43:29;;;;;;;17.60;3.80;;;;;;;24.97;54.84;99491.03;10290060;28;20042;-71
2022/09/01 22:48:30;;;;;;;20.15;3.67;;;;;;;24.95;53.98;99487.78;10290803;28;20039;-71
2022/09/01 22:53:30;;;;;;;13.23;3.30;;;;;;;24.86;54.16;99473.19;10291491;28;20519;-71
2022/09/01 22:58:31;;;;;;;32.17;3.97;;;;;;;24.01;54.77;99355.66;10291667;28;20487;-71
2022/09/01 23:03:32;;;;;;;26.65;4.30;;;;;;;24.67;55.05;99473.06;10291430;28;20047;-70
2022/09/01 23:08:33;;;;;;;17.25;3.50;;;;;;;24.55;55.42;99473.44;10291633;28;20034;-71
2022/09/01 23:13:35;;;;;;;18.27;3.55;;;;;;;24.30;55.42;99439.09;10291116;28;20534;-71
2022/09/01 23:18:38;;;;;;;16.35;3.95;;;;;;;24.48;55.61;99478.38;10291097;28;20042;-71
2022/09/01 23:23:40;;;;;;;26.42;9.55;;;;;;;24.35;55.88;99512.31;10290990;28;20038;-72
2022/09/01 23:28:43;;;;;;;21.80;5.60;;;;;;;24.19;56.15;99524.34;10290370;28;20411;-71
2022/09/01 23:33:44;;;;;;;16.27;5.40;;;;;;;24.10;56.21;99514.06;10291002;28;20517;-72
2022/09/01 23:38:46;;;;;;;27.85;12.25;;;;;;;23.68;56.57;99471.06;10290134;28;20039;-71